Time;durP1;ratioP1;P1;durP2;ratioP2;P2;SDS_P1;SDS_P2;PMS_P1;PMS_P2;Temp;Humidity;BMP_temperature;BMP_pressure;BME280_temperature;BME280_humidity;BME280_pressure;Samples;Min_cycle;Max_cycle;Signal;HPM_P1;HPM_P2
2021/09/28 00:01:27;;;;;;;15.93;10.38;;;;;;;18.09;100.00;98095.59;4871807;29;20053;-84
2021/09/28 00:03:56;;;;;;;21.40;11.27;;;;;;;18.30;100.00;98106.31;4881930;29;20044;-83
2021/09/28 00:06:23;;;;;;;15.40;9.88;;;;;;;18.33;100.00;98100.91;4883131;29;20242;-85
2021/09/28 00:08:50;;;;;;;17.48;10.40;;;;;;;18.23;100.00;98095.94;4897939;29;20075;-87
2021/09/28 00:11:20;;;;;;;15.50;10.82;;;;;;;18.32;100.00;98102.06;4899703;29;20045;-87
2021/09/28 00:13:47;;;;;;;15.20;10.85;;;;;;;18.35;100.00;98101.34;4884336;29;20120;-87
2021/09/28 00:16:14;;;;;;;16.50;10.77;;;;;;;18.13;100.00;98087.47;4900155;29;20049;-86
2021/09/28 00:18:42;;;;;;;16.65;11.18;;;;;;;18.37;100.00;98115.50;4888746;29;20044;-88
2021/09/28 00:21:11;;;;;;;14.85;10.77;;;;;;;18.12;100.00;98094.88;4902804;29;20108;-87
2021/09/28 00:23:38;;;;;;;14.45;10.10;;;;;;;18.11;100.00;98120.72;4900779;29;20127;-88
2021/09/28 00:26:06;;;;;;;14.15;9.63;;;;;;;18.00;100.00;98112.22;4899385;29;20048;-86
2021/09/28 00:28:32;;;;;;;16.45;10.20;;;;;;;18.13;100.00;98117.59;4899983;29;20048;-89
2021/09/28 00:31:04;;;;;;;16.70;9.75;;;;;;;17.87;100.00;98094.25;4883528;29;20076;-88
2021/09/28 00:33:31;;;;;;;17.17;11.18;;;;;;;17.92;100.00;98093.19;4899109;29;20064;-87
2021/09/28 00:35:58;;;;;;;17.73;10.50;;;;;;;17.89;100.00;98094.69;4898839;29;20078;-85
2021/09/28 00:38:25;;;;;;;14.10;10.45;;;;;;;17.92;100.00;98115.91;4898760;29;20060;-88
2021/09/28 00:40:58;;;;;;;21.55;10.45;;;;;;;17.98;100.00;98119.19;4883903;29;20067;-90
2021/09/28 00:43:24;;;;;;;13.60;10.52;;;;;;;18.01;100.00;98122.00;4887283;29;20044;-88
2021/09/28 00:45:54;;;;;;;14.98;10.45;;;;;;;17.89;100.00;98105.63;4902317;29;20048;-88
2021/09/28 00:48:21;;;;;;;14.15;10.02;;;;;;;17.93;100.00;98124.91;4903599;29;20033;-88
2021/09/28 00:50:53;;;;;;;14.43;10.10;;;;;;;17.87;100.00;98123.56;4902272;29;20048;-88
2021/09/28 00:53:20;;;;;;;16.20;10.30;;;;;;;17.79;100.00;98106.16;4901738;29;20112;-86
2021/09/28 00:55:49;;;;;;;16.50;10.15;;;;;;;17.67;100.00;98099.94;4896230;29;20049;-87
2021/09/28 00:58:18;;;;;;;13.52;9.68;;;;;;;17.76;100.00;98122.47;4879872;29;20048;-87
2021/09/28 01:00:50;;;;;;;16.00;10.85;;;;;;;17.71;100.00;98117.25;4897229;29;20080;-88
2021/09/28 01:03:18;;;;;;;14.65;10.18;;;;;;;17.82;100.00;98130.09;4897605;29;20081;-86
2021/09/28 01:05:46;;;;;;;18.40;10.73;;;;;;;17.78;100.00;98114.72;4882932;29;20079;-87
2021/09/28 01:08:12;;;;;;;14.85;10.00;;;;;;;17.87;100.00;98124.38;4897737;29;20513;-87
2021/09/28 01:10:41;;;;;;;18.73;10.02;;;;;;;17.94;100.00;98141.00;4912957;29;20076;-86
2021/09/28 01:13:08;;;;;;;17.08;10.52;;;;;;;17.85;100.00;98115.72;4898000;29;20044;-87
2021/09/28 01:15:36;;;;;;;14.88;10.30;;;;;;;17.95;100.00;98128.91;4899570;29;20056;-87
2021/09/28 01:18:03;;;;;;;15.75;10.00;;;;;;;18.02;100.00;98115.38;4899933;29;20107;-87
2021/09/28 01:20:35;;;;;;;15.57;10.07;;;;;;;17.89;100.00;98129.50;4882998;29;20059;-87
2021/09/28 01:23:02;;;;;;;14.55;9.18;;;;;;;18.02;100.00;98131.81;4899227;29;20247;-88
2021/09/28 01:25:32;;;;;;;16.52;9.63;;;;;;;18.00;100.00;98133.31;4899362;29;20048;-87
2021/09/28 01:28:05;;;;;;;15.70;9.90;;;;;;;18.13;100.00;98123.88;4882440;29;20053;-88
2021/09/28 01:30:33;;;;;;;16.02;10.05;;;;;;;17.98;100.00;98111.78;4898836;29;20045;-88
2021/09/28 01:33:03;;;;;;;13.02;9.65;;;;;;;18.11;100.00;98133.59;4900342;29;20048;-87
2021/09/28 01:35:30;;;;;;;18.48;9.55;;;;;;;18.04;100.00;98134.19;4885023;29;20045;-86
2021/09/28 01:37:59;;;;;;;14.32;8.90;;;;;;;18.11;100.00;98141.81;4884769;29;20052;-87
2021/09/28 01:40:26;;;;;;;17.85;8.90;;;;;;;17.99;100.00;98137.19;4901158;29;20037;-86
2021/09/28 01:42:55;;;;;;;13.50;9.02;;;;;;;18.13;100.00;98148.56;4901655;29;20631;-86
2021/09/28 01:45:22;;;;;;;15.65;9.10;;;;;;;18.04;100.00;98128.72;4902339;29;20120;-86
2021/09/28 01:47:50;;;;;;;14.00;8.98;;;;;;;18.17;100.00;98149.44;4901201;29;20071;-87
2021/09/28 01:50:18;;;;;;;15.93;9.73;;;;;;;18.04;100.00;98145.97;4885482;29;20072;-87
2021/09/28 01:52:48;;;;;;;19.08;9.95;;;;;;;18.06;100.00;98156.59;4882475;29;20116;-87
2021/09/28 01:55:15;;;;;;;15.27;9.48;;;;;;;18.04;100.00;98135.00;4880271;29;20071;-86
2021/09/28 01:57:42;;;;;;;12.82;8.82;;;;;;;18.12;100.00;98149.69;4881809;29;20119;-87
2021/09/28 02:00:12;;;;;;;14.10;9.00;;;;;;;17.94;100.00;98145.66;4884743;29;20040;-87
2021/09/28 02:02:42;;;;;;;13.38;9.35;;;;;;;17.70;100.00;98143.06;4882925;29;20052;-88
2021/09/28 02:08:58;;;;;;;14.98;9.85;;;;;;;17.36;100.00;98126.03;4871707;29;20028;-88
2021/09/28 02:12:06;;;;;;;14.82;9.95;;;;;;;17.35;100.00;98146.34;4890776;29;20037;-87
2021/09/28 02:14:33;;;;;;;14.32;9.25;;;;;;;17.23;100.00;98134.63;4886980;29;20135;-86
2021/09/28 02:17:00;;;;;;;14.48;9.63;;;;;;;17.13;100.00;98141.38;4887032;29;20032;-89
2021/09/28 02:19:27;;;;;;;14.30;10.05;;;;;;;17.02;100.00;98136.72;4886941;29;20116;-88
2021/09/28 02:21:54;;;;;;;16.65;9.77;;;;;;;17.09;100.00;98139.66;4885794;29;20048;-89
2021/09/28 02:24:27;;;;;;;18.38;11.07;;;;;;;16.97;100.00;98126.00;4884785;29;20276;-88
2021/09/28 02:26:54;;;;;;;16.52;10.57;;;;;;;17.11;100.00;98140.13;4883986;29;20048;-86
2021/09/28 02:29:21;;;;;;;17.20;11.13;;;;;;;17.07;100.00;98140.00;4883748;29;20056;-88
2021/09/28 02:31:48;;;;;;;15.07;10.02;;;;;;;17.10;100.00;98154.94;4883909;29;20105;-90
2021/09/28 02:34:21;;;;;;;16.70;9.70;;;;;;;17.12;100.00;98158.94;4883949;29;20082;-88
2021/09/28 02:36:50;;;;;;;19.45;10.55;;;;;;;17.12;100.00;98138.97;4901823;29;20037;-88
2021/09/28 02:39:18;;;;;;;16.75;10.10;;;;;;;17.08;100.00;98141.63;4883122;29;20056;-88
2021/09/28 02:41:52;;;;;;;15.45;10.23;;;;;;;17.09;100.00;98142.41;4900498;29;20224;-86
2021/09/28 02:44:23;;;;;;;15.70;9.68;;;;;;;17.15;100.00;98154.72;4885910;29;20158;-89
2021/09/28 02:46:51;;;;;;;17.65;9.95;;;;;;;17.23;100.00;98162.00;4885679;29;20097;-87
2021/09/28 02:49:21;;;;;;;12.68;9.10;;;;;;;17.16;100.00;98159.81;4886500;29;20116;-90
2021/09/28 02:51:50;;;;;;;13.65;9.15;;;;;;;16.93;100.00;98139.56;4886437;29;20048;-87
2021/09/28 02:54:17;;;;;;;17.25;9.70;;;;;;;17.04;100.00;98162.59;4886825;29;20116;-86
2021/09/28 02:56:50;;;;;;;14.15;10.43;;;;;;;16.86;100.00;98133.06;4884737;29;20056;-88
2021/09/28 02:59:16;;;;;;;21.45;12.40;;;;;;;16.97;100.00;98151.44;4886185;29;20032;-89
2021/09/28 03:01:44;;;;;;;16.38;10.07;;;;;;;16.98;100.00;98141.28;4891198;29;20044;-88
2021/09/28 03:04:11;;;;;;;19.13;9.68;;;;;;;16.94;100.00;98154.03;4892300;29;20077;-88
2021/09/28 03:06:45;;;;;;;14.93;9.50;;;;;;;16.96;100.00;98133.41;4891351;29;20041;-87
2021/09/28 03:09:16;;;;;;;19.05;11.10;;;;;;;16.86;100.00;98150.28;4891637;29;20070;-87
2021/09/28 03:11:43;;;;;;;20.67;10.75;;;;;;;16.76;100.00;98145.28;4891590;29;20450;-87
2021/09/28 03:14:09;;;;;;;16.45;11.30;;;;;;;16.83;100.00;98153.72;4890887;29;20133;-87
2021/09/28 03:16:40;;;;;;;17.80;12.52;;;;;;;16.77;100.00;98166.03;4891227;29;20056;-88
2021/09/28 03:19:07;;;;;;;20.30;13.20;;;;;;;16.70;100.00;98133.78;4890819;29;20044;-87
2021/09/28 03:21:34;;;;;;;21.70;12.38;;;;;;;16.56;100.00;98129.81;4891722;29;20152;-87
2021/09/28 03:24:02;;;;;;;18.77;11.75;;;;;;;16.67;100.00;98148.13;4891550;29;20040;-87
2021/09/28 03:26:33;;;;;;;25.02;13.20;;;;;;;16.49;100.00;98162.34;4892445;29;20049;-87
2021/09/28 03:29:02;;;;;;;19.13;12.93;;;;;;;16.38;100.00;98147.53;4892911;29;20040;-87
2021/09/28 03:31:29;;;;;;;22.23;13.55;;;;;;;16.40;100.00;98156.97;4892016;29;20052;-87
2021/09/28 03:33:56;;;;;;;20.38;12.88;;;;;;;16.42;100.00;98159.34;4891925;29;20052;-88
2021/09/28 03:36:27;;;;;;;22.80;14.50;;;;;;;16.40;100.00;98146.03;4891960;29;20040;-88
2021/09/28 03:38:54;;;;;;;22.00;14.45;;;;;;;16.42;100.00;98164.81;4893979;29;20028;-89
2021/09/28 03:41:24;;;;;;;21.35;13.70;;;;;;;16.52;100.00;98176.13;4894104;29;20032;-87
2021/09/28 03:43:51;;;;;;;21.27;13.32;;;;;;;16.57;100.00;98167.72;4893558;29;20052;-88
2021/09/28 03:46:21;;;;;;;18.00;12.52;;;;;;;16.48;100.00;98172.47;4893261;29;20040;-87
2021/09/28 03:48:50;;;;;;;18.00;12.68;;;;;;;16.51;100.00;98176.47;4891945;29;20101;-90
2021/09/28 03:51:18;;;;;;;22.38;13.55;;;;;;;16.56;100.00;98177.06;4887729;29;20055;-85
2021/09/28 03:53:51;;;;;;;21.27;13.20;;;;;;;17.02;100.00;98185.94;4877822;29;20120;-84
2021/09/28 03:56:22;;;;;;;21.98;14.10;;;;;;;17.24;100.00;98178.06;4880046;29;20048;-82
2021/09/28 03:58:49;;;;;;;24.52;14.75;;;;;;;17.45;100.00;98200.59;4897062;29;20057;-84
2021/09/28 04:01:19;;;;;;;24.00;15.77;;;;;;;17.49;100.00;98192.50;4893671;29;20108;-86
2021/09/28 04:03:47;;;;;;;22.35;16.20;;;;;;;17.33;100.00;98189.69;4879643;29;20045;-83
2021/09/28 04:06:16;;;;;;;35.65;17.38;;;;;;;17.50;100.00;98199.56;4895945;29;20067;-85
2021/09/28 04:08:44;;;;;;;28.40;18.00;;;;;;;17.55;100.00;98207.56;4880291;29;20058;-85
2021/09/28 04:11:15;;;;;;;29.77;19.85;;;;;;;17.25;100.00;98236.31;4879541;29;20072;-85
2021/09/28 04:13:47;;;;;;;31.42;20.83;;;;;;;17.17;100.00;98221.63;4908795;29;20112;-83
2021/09/28 04:16:16;;;;;;;32.47;21.85;;;;;;;17.23;100.00;98233.13;4877175;29;20080;-85
2021/09/28 04:18:45;;;;;;;34.65;22.65;;;;;;;17.09;100.00;98229.94;4874472;29;20060;-82
2021/09/28 04:21:13;;;;;;;39.25;22.25;;;;;;;17.12;100.00;98240.22;4888427;29;20051;-80
2021/09/28 04:23:40;;;;;;;31.52;20.60;;;;;;;17.02;100.00;98237.94;4877290;29;20113;-84
2021/09/28 04:26:07;;;;;;;28.48;17.63;;;;;;;16.66;100.00;98235.97;4887342;29;20067;-82
2021/09/28 04:28:35;;;;;;;24.75;17.52;;;;;;;16.57;100.00;98235.28;4875851;29;20053;-83
2021/09/28 04:31:02;;;;;;;19.80;14.68;;;;;;;16.49;100.00;98244.34;4901243;29;20104;-83
2021/09/28 04:33:32;;;;;;;16.63;13.43;;;;;;;16.20;100.00;98246.09;4905894;29;20040;-83
2021/09/28 04:35:59;;;;;;;16.25;12.27;;;;;;;16.19;100.00;98244.47;4880725;29;20139;-84
2021/09/28 04:38:26;;;;;;;17.05;11.57;;;;;;;16.05;100.00;98234.97;4898041;29;20633;-83
2021/09/28 04:40:53;;;;;;;15.52;10.13;;;;;;;16.04;100.00;98241.56;4905463;29;20063;-82
2021/09/28 04:43:20;;;;;;;14.88;8.65;;;;;;;16.05;100.00;98252.16;4874248;29;20049;-82
2021/09/28 04:45:46;;;;;;;12.25;7.53;;;;;;;16.01;100.00;98250.44;4869987;29;20136;-83
2021/09/28 04:48:13;;;;;;;12.27;7.10;;;;;;;15.77;100.00;98256.56;4872194;29;20048;-83
2021/09/28 04:50:49;;;;;;;13.32;6.45;;;;;;;15.52;100.00;98261.09;4871375;29;20870;-82
2021/09/28 04:53:16;;;;;;;12.32;7.10;;;;;;;15.72;100.00;98269.63;4889696;29;20071;-82
2021/09/28 04:56:01;;;;;;;12.27;7.53;;;;;;;15.70;100.00;98236.38;4882588;29;20118;-90
2021/09/28 04:58:44;;;;;;;8.75;6.22;;;;;;;15.44;100.00;98231.09;4883627;29;20056;-84
2021/09/28 05:01:15;;;;;;;11.80;6.93;;;;;;;15.73;100.00;98269.28;4893910;29;20052;-88
2021/09/28 05:03:45;;;;;;;11.35;7.30;;;;;;;15.54;100.00;98247.09;4890454;29;20041;-82
2021/09/28 05:06:15;;;;;;;13.55;8.77;;;;;;;15.54;100.00;98249.84;4893315;29;20044;-90
2021/09/28 05:08:42;;;;;;;15.70;9.70;;;;;;;15.55;100.00;98260.44;4883718;29;20045;-86
2021/09/28 05:11:16;;;;;;;14.23;10.15;;;;;;;15.44;100.00;98261.91;4895154;29;20052;-87
2021/09/28 05:13:43;;;;;;;17.35;11.05;;;;;;;15.25;100.00;98260.75;4879566;29;20049;-82
2021/09/28 05:16:20;;;;;;;16.42;11.32;;;;;;;15.35;100.00;98263.09;4897520;29;20052;-86
2021/09/28 05:18:50;;;;;;;20.40;12.63;;;;;;;15.55;100.00;98271.34;4879715;29;20045;-86
2021/09/28 05:21:25;;;;;;;18.67;12.68;;;;;;;15.53;100.00;98284.53;4896967;29;20049;-84
2021/09/28 05:24:01;;;;;;;15.85;13.77;;;;;;;15.43;100.00;98289.53;4882516;29;20075;-86
2021/09/28 05:26:31;;;;;;;19.80;13.95;;;;;;;15.38;100.00;98290.50;4896436;29;20082;-85
2021/09/28 05:29:04;;;;;;;17.88;14.43;;;;;;;15.48;100.00;98283.94;4880534;29;20076;-87
2021/09/28 05:31:39;;;;;;;22.20;14.68;;;;;;;15.51;100.00;98277.81;4885004;29;20045;-89
2021/09/28 05:34:11;;;;;;;22.73;14.68;;;;;;;15.76;100.00;98295.94;4904772;29;20036;-87
2021/09/28 05:36:52;;;;;;;23.58;16.55;;;;;;;15.53;100.00;98286.47;4905865;29;20037;-87
2021/09/28 05:39:30;;;;;;;18.63;15.30;;;;;;;15.55;100.00;98276.00;4920300;29;20024;-86
2021/09/28 05:41:59;;;;;;;;;;;;;;;15.47;100.00;98301.41;4888903;29;20045;-87
2021/09/28 05:44:39;;;;;;;25.10;15.52;;;;;;;15.58;100.00;98294.44;4888342;29;19912;-86
2021/09/28 05:47:10;;;;;;;22.05;15.50;;;;;;;15.33;100.00;98298.13;4905129;29;20052;-86
2021/09/28 05:49:39;;;;;;;19.88;14.68;;;;;;;15.44;100.00;98315.69;4889260;29;20043;-89
2021/09/28 05:52:13;;;;;;;21.10;13.88;;;;;;;15.55;100.00;98322.41;4879808;29;20072;-85
2021/09/28 05:54:50;;;;;;;20.67;14.93;;;;;;;15.61;100.00;98306.63;4875643;29;20356;-86
2021/09/28 05:57:43;;;;;;;22.58;14.20;;;;;;;15.72;100.00;98308.63;4875789;29;20071;-88
2021/09/28 06:00:30;;;;;;;20.67;14.25;;;;;;;15.46;100.00;98289.69;4892567;29;20044;-90
2021/09/28 06:03:16;;;;;;;21.38;14.30;;;;;;;15.58;100.00;98313.56;4878470;29;20139;-89
2021/09/28 06:05:58;;;;;;;23.17;15.18;;;;;;;15.68;100.00;98331.47;4895233;23;20084;-80
2021/09/28 06:08:25;;;;;;;23.73;15.02;;;;;;;15.55;100.00;98328.66;4863922;29;20049;-80
2021/09/28 06:10:51;;;;;;;19.02;13.65;;;;;;;15.40;100.00;98331.94;4881409;29;20048;-81
2021/09/28 06:13:18;;;;;;;19.73;12.90;;;;;;;15.30;100.00;98343.22;4863516;29;20089;-81
2021/09/28 06:15:45;;;;;;;20.75;13.25;;;;;;;15.36;100.00;98333.69;4863246;29;20120;-78
2021/09/28 06:18:11;;;;;;;22.33;13.40;;;;;;;15.24;100.00;98344.53;4878806;29;20120;-80
2021/09/28 06:20:38;;;;;;;18.42;13.70;;;;;;;15.36;100.00;98354.72;4845761;29;20060;-80
2021/09/28 06:23:04;;;;;;;24.08;14.20;;;;;;;15.28;100.00;98345.44;4862011;29;20114;-79
2021/09/28 06:25:31;;;;;;;24.48;14.57;;;;;;;15.17;100.00;98351.63;4847399;29;20061;-78
2021/09/28 06:27:58;;;;;;;22.88;14.98;;;;;;;15.18;100.00;98350.47;4879233;29;20049;-80
2021/09/28 06:30:25;;;;;;;28.95;15.20;;;;;;;15.06;100.00;98358.53;4862666;29;20052;-79
2021/09/28 06:32:52;;;;;;;21.83;14.70;;;;;;;15.18;100.00;98364.91;4864694;29;20045;-79
2021/09/28 06:35:19;;;;;;;24.77;14.80;;;;;;;15.09;100.00;98368.81;4847157;29;20055;-80
2021/09/28 06:37:45;;;;;;;19.98;14.20;;;;;;;15.06;100.00;98378.44;4877566;29;20136;-79
2021/09/28 06:40:12;;;;;;;21.65;14.25;;;;;;;14.90;100.00;98394.53;4877212;29;20056;-80
2021/09/28 06:42:39;;;;;;;22.90;14.05;;;;;;;15.14;100.00;98391.25;4903527;23;20055;-79
2021/09/28 06:45:06;;;;;;;23.70;15.55;;;;;;;14.88;100.00;98380.41;4906606;29;20060;-76
2021/09/28 06:47:34;;;;;;;24.20;14.52;;;;;;;14.92;100.00;98394.19;4906709;29;20211;-80
2021/09/28 06:50:00;;;;;;;21.50;14.82;;;;;;;14.88;100.00;98394.06;4885998;29;20480;-78
2021/09/28 06:52:27;;;;;;;23.05;15.10;;;;;;;14.92;100.00;98397.72;4873519;29;20074;-80
2021/09/28 06:54:54;;;;;;;21.58;14.13;;;;;;;15.12;100.00;98398.97;4897325;23;20120;-81
2021/09/28 06:57:20;;;;;;;24.77;15.38;;;;;;;15.03;100.00;98397.38;4897606;29;20049;-80
2021/09/28 06:59:47;;;;;;;19.83;16.35;;;;;;;15.13;100.00;98405.19;4896349;29;20067;-78
2021/09/28 07:02:14;;;;;;;26.00;17.13;;;;;;;14.92;100.00;98407.81;4897730;29;20265;-78
2021/09/28 07:04:41;;;;;;;17.13;13.68;;;;;;;14.76;100.00;98417.66;4899301;29;20045;-78
2021/09/28 07:07:07;;;;;;;14.20;11.55;;;;;;;14.74;100.00;98425.31;4879153;29;20059;-78
2021/09/28 07:09:35;;;;;;;14.18;8.13;;;;;;;14.69;100.00;98429.03;4895975;29;20080;-79
2021/09/28 07:12:02;;;;;;;12.90;7.90;;;;;;;14.74;100.00;98415.22;4879674;29;20523;-79
2021/09/28 07:14:28;;;;;;;11.35;6.85;;;;;;;14.85;100.00;98430.13;4878615;29;20049;-77
2021/09/28 07:16:55;;;;;;;12.48;5.40;;;;;;;14.83;100.00;98421.50;4894249;29;20119;-78
2021/09/28 07:19:21;;;;;;;10.40;5.00;;;;;;;14.89;100.00;98419.41;4877028;29;20059;-78
2021/09/28 07:21:48;;;;;;;10.13;5.03;;;;;;;14.90;100.00;98427.25;4876152;29;20048;-79
2021/09/28 07:24:14;;;;;;;9.55;4.80;;;;;;;14.86;100.00;98437.19;4878006;29;20049;-79
2021/09/28 07:26:41;;;;;;;10.68;5.32;;;;;;;14.76;100.00;98432.06;4877518;29;20049;-77
2021/09/28 07:29:07;;;;;;;8.88;4.55;;;;;;;14.83;100.00;98429.66;4877799;29;20097;-78
2021/09/28 07:31:34;;;;;;;11.95;4.60;;;;;;;15.01;100.00;98443.25;4877998;29;20060;-78
2021/09/28 07:34:00;;;;;;;8.52;3.90;;;;;;;15.12;100.00;98442.59;4895928;29;20072;-80
2021/09/28 07:36:27;;;;;;;13.75;4.55;;;;;;;15.01;100.00;98446.78;4862600;29;20473;-79
2021/09/28 07:38:54;;;;;;;8.50;3.65;;;;;;;15.01;100.00;98446.00;4862110;29;20513;-79
2021/09/28 07:41:20;;;;;;;8.10;3.10;;;;;;;14.97;100.00;98451.28;4876843;29;20088;-80
2021/09/28 07:43:47;;;;;;;9.32;3.17;;;;;;;15.03;100.00;98451.91;4879432;29;20047;-79
2021/09/28 07:46:14;;;;;;;8.35;3.05;;;;;;;14.98;100.00;98450.97;4899727;29;20051;-78
2021/09/28 07:48:41;;;;;;;7.35;2.95;;;;;;;14.96;100.00;98455.94;4908740;29;20045;-81
2021/09/28 07:51:07;;;;;;;10.60;3.00;;;;;;;14.92;100.00;98451.44;4910010;29;20361;-80
2021/09/28 07:53:34;;;;;;;6.10;3.20;;;;;;;14.84;100.00;98463.19;4909357;29;20211;-77
2021/09/28 07:56:02;;;;;;;6.53;3.30;;;;;;;14.53;100.00;98463.31;4892760;29;20048;-80
2021/09/28 07:58:29;;;;;;;10.05;4.10;;;;;;;14.54;100.00;98461.41;4900154;29;20056;-79
2021/09/28 08:00:56;;;;;;;6.95;3.53;;;;;;;14.59;100.00;98463.97;4883528;29;20059;-79
2021/09/28 08:03:26;;;;;;;9.82;3.60;;;;;;;14.45;100.00;98464.16;4885782;29;20096;-79
2021/09/28 08:05:53;;;;;;;7.82;3.80;;;;;;;14.63;100.00;98471.22;4883979;29;20139;-79
2021/09/28 08:08:19;;;;;;;9.15;3.75;;;;;;;14.64;100.00;98480.97;4898071;29;20048;-78
2021/09/28 08:10:46;;;;;;;8.05;3.38;;;;;;;14.64;100.00;98478.25;4897453;29;20059;-78
2021/09/28 08:13:13;;;;;;;6.45;3.90;;;;;;;14.78;100.00;98483.53;4896449;29;20056;-80
2021/09/28 08:15:40;;;;;;;7.25;3.80;;;;;;;14.97;100.00;98479.34;4880653;29;20049;-79
2021/09/28 08:18:06;;;;;;;8.15;4.40;;;;;;;14.97;100.00;98473.91;4880251;29;20048;-78
2021/09/28 08:20:34;;;;;;;6.80;3.95;;;;;;;14.99;100.00;98471.63;4881058;29;20055;-79
2021/09/28 08:23:01;;;;;;;6.45;3.38;;;;;;;15.04;100.00;98478.88;4898157;29;20056;-80
2021/09/28 08:25:37;;;;;;;6.07;2.85;;;;;;;14.88;100.00;98473.13;4899009;29;20075;-80
2021/09/28 08:30:49;;;;;;;5.47;2.25;;;;;;;14.91;100.00;98472.47;4898490;29;19979;-80
2021/09/28 08:33:15;;;;;;;8.40;2.53;;;;;;;14.94;100.00;98479.22;4881440;29;20074;-80
2021/09/28 08:35:42;;;;;;;7.32;2.55;;;;;;;15.05;100.00;98485.91;4881084;29;20227;-79
2021/09/28 08:38:09;;;;;;;9.63;3.30;;;;;;;14.96;100.00;98479.69;4897005;29;20535;-79
2021/09/28 08:40:37;;;;;;;11.57;3.17;;;;;;;15.09;100.00;98497.00;4896724;29;20068;-79
2021/09/28 08:43:04;;;;;;;9.27;3.10;;;;;;;15.34;100.00;98485.22;4886358;29;20060;-79
2021/09/28 08:45:30;;;;;;;15.02;3.35;;;;;;;15.54;100.00;98492.72;4912832;29;20047;-80
2021/09/28 08:47:57;;;;;;;13.30;3.45;;;;;;;15.43;100.00;98497.72;4894673;29;20068;-79
2021/09/28 08:50:23;;;;;;;12.70;3.83;;;;;;;15.37;100.00;98490.03;4897333;29;20048;-80
2021/09/28 08:52:51;;;;;;;14.30;3.67;;;;;;;15.53;100.00;98500.16;4914816;29;20052;-80
2021/09/28 08:55:23;;;;;;;11.15;4.18;;;;;;;15.66;100.00;98494.81;4912026;29;20290;-80
2021/09/28 08:58:10;;;;;;;9.45;3.58;;;;;;;15.72;100.00;98494.28;4892571;29;20052;-79
2021/09/28 09:00:36;;;;;;;12.23;5.07;;;;;;;15.53;100.00;98491.97;4892543;29;20053;-79
2021/09/28 09:03:03;;;;;;;13.02;5.38;;;;;;;15.86;100.00;98505.81;4907581;29;20477;-78
2021/09/28 09:05:30;;;;;;;12.05;5.18;;;;;;;15.74;100.00;98505.69;4909492;29;20044;-80
2021/09/28 09:08:06;;;;;;;9.50;5.03;;;;;;;15.77;100.00;98491.38;4910056;29;20055;-78
2021/09/28 09:10:36;;;;;;;10.13;5.00;;;;;;;15.52;100.00;98505.91;4889823;29;20044;-76
2021/09/28 09:13:03;;;;;;;15.02;5.18;;;;;;;15.73;100.00;98504.09;4895997;29;20449;-79
2021/09/28 09:15:33;;;;;;;9.73;5.32;;;;;;;15.72;100.00;98502.47;4896628;29;20048;-79
2021/09/28 09:18:02;;;;;;;12.25;5.32;;;;;;;15.65;100.00;98494.00;4896776;29;20051;-80
2021/09/28 09:20:38;;;;;;;15.15;6.22;;;;;;;15.39;100.00;98499.50;4897350;29;20040;-80
2021/09/28 09:23:17;;;;;;;12.52;5.93;;;;;;;15.61;100.00;98506.72;4898575;29;20481;-79
2021/09/28 09:25:45;;;;;;;15.30;6.07;;;;;;;15.70;100.00;98496.53;4898350;29;20048;-79
2021/09/28 09:28:31;;;;;;;18.98;6.63;;;;;;;15.96;100.00;98501.91;4882346;29;20041;-79
2021/09/28 09:31:14;;;;;;;13.20;6.70;;;;;;;16.40;100.00;98482.19;4897826;29;20127;-79
2021/09/28 09:33:45;;;;;;;10.57;6.00;;;;;;;16.44;100.00;98488.59;4897667;29;20413;-79
2021/09/28 09:36:17;;;;;;;12.80;6.28;;;;;;;16.32;100.00;98495.91;4881448;29;20048;-79
2021/09/28 09:38:55;;;;;;;12.07;6.82;;;;;;;16.18;100.00;98496.19;4897713;29;20052;-79
2021/09/28 09:41:27;;;;;;;13.82;7.47;;;;;;;16.07;100.00;98501.22;4881141;29;20056;-80
2021/09/28 09:44:09;;;;;;;13.90;7.55;;;;;;;16.18;100.00;98502.41;4865710;29;20044;-79
2021/09/28 09:46:46;;;;;;;13.38;7.38;;;;;;;15.94;100.00;98496.78;4897315;29;20052;-78
2021/09/28 09:49:19;;;;;;;7.60;5.88;;;;;;;15.71;100.00;98492.69;4896958;29;20051;-78
2021/09/28 09:51:48;;;;;;;7.65;5.82;;;;;;;15.59;100.00;98496.09;4896931;29;20045;-78
2021/09/28 09:54:16;;;;;;;11.55;5.57;;;;;;;15.35;100.00;98487.66;4880897;29;20048;-79
2021/09/28 09:56:51;;;;;;;8.52;6.00;;;;;;;15.44;100.00;98504.78;4880494;29;20091;-78
2021/09/28 09:59:22;;;;;;;8.35;4.80;;;;;;;15.33;100.00;98502.75;4897345;29;20589;-79
2021/09/28 10:01:51;;;;;;;11.00;5.72;;;;;;;15.62;100.00;98496.56;4897488;29;20117;-80
2021/09/28 10:04:22;;;;;;;9.38;6.13;;;;;;;15.83;100.00;98502.91;4897114;29;20315;-79
2021/09/28 10:06:49;;;;;;;12.60;5.50;;;;;;;15.74;100.00;98500.25;4897432;29;20119;-80
2021/09/28 10:09:34;;;;;;;8.77;5.70;;;;;;;15.83;100.00;98506.44;4897049;29;20049;-80
2021/09/28 10:12:05;;;;;;;10.38;5.43;;;;;;;15.63;100.00;98509.09;4883503;29;20059;-80
2021/09/28 10:14:45;;;;;;;11.80;5.90;;;;;;;15.73;100.00;98509.53;4881409;29;20045;-80
2021/09/28 10:17:26;;;;;;;9.32;5.60;;;;;;;15.96;100.00;98513.63;4897651;29;20062;-80
2021/09/28 10:20:02;;;;;;;8.43;5.22;;;;;;;16.03;100.00;98511.19;4897660;29;20430;-80
2021/09/28 10:22:35;;;;;;;9.57;5.03;;;;;;;16.05;100.00;98506.19;4881277;29;20048;-80
2021/09/28 10:25:23;;;;;;;12.23;5.07;;;;;;;16.00;100.00;98500.91;4864526;29;20132;-80
2021/09/28 10:27:55;;;;;;;11.73;5.35;;;;;;;16.08;100.00;98500.06;4898156;29;20057;-80
2021/09/28 10:30:28;;;;;;;10.50;4.97;;;;;;;16.30;100.00;98501.72;4898838;29;20052;-78
2021/09/28 10:32:56;;;;;;;8.13;4.07;;;;;;;16.50;100.00;98494.66;4880803;29;20052;-80
2021/09/28 10:35:24;;;;;;;10.32;3.45;;;;;;;17.02;100.00;98495.91;4896865;29;20044;-80
2021/09/28 10:37:57;;;;;;;8.32;2.72;;;;;;;16.98;100.00;98485.97;4879220;29;20462;-79
2021/09/28 10:40:26;;;;;;;5.70;2.33;;;;;;;17.38;100.00;98500.69;4897051;29;20052;-78
2021/09/28 10:42:53;;;;;;;10.55;2.90;;;;;;;17.18;100.00;98496.88;4880732;29;20052;-81
2021/09/28 10:45:30;;;;;;;7.78;2.63;;;;;;;17.11;100.00;98496.59;4885743;29;20037;-80
2021/09/28 10:48:08;;;;;;;6.75;2.42;;;;;;;16.75;100.00;98499.16;4899923;29;20052;-80
2021/09/28 10:50:37;;;;;;;5.70;2.35;;;;;;;16.85;100.00;98500.72;4880243;29;20044;-80
2021/09/28 10:53:05;;;;;;;6.10;2.38;;;;;;;16.73;100.00;98490.50;4864462;29;20057;-80
2021/09/28 10:56:01;;;;;;;6.75;2.53;;;;;;;16.87;100.00;98493.78;4879223;29;20637;-80
2021/09/28 10:58:58;;;;;;;8.77;2.75;;;;;;;16.59;100.00;98490.78;4866593;29;20044;-80
2021/09/28 11:01:27;;;;;;;11.65;2.47;;;;;;;16.58;100.00;98482.91;4897981;29;20044;-79
2021/09/28 11:03:58;;;;;;;8.75;2.75;;;;;;;16.85;100.00;98489.78;4878614;29;20143;-80
2021/09/28 11:06:51;;;;;;;8.10;2.63;;;;;;;16.60;100.00;98492.38;4879797;29;20119;-79
2021/09/28 11:09:20;;;;;;;5.55;2.17;;;;;;;16.73;100.00;98487.75;4895778;29;20455;-78
2021/09/28 11:11:50;;;;;;;10.23;2.20;;;;;;;16.62;100.00;98490.09;4879337;29;20068;-79
2021/09/28 11:14:17;;;;;;;11.60;2.35;;;;;;;16.43;100.00;98497.13;4893619;29;20059;-82
2021/09/28 11:16:53;;;;;;;7.43;2.30;;;;;;;16.68;100.00;98496.16;4908669;29;20045;-81
2021/09/28 11:19:20;;;;;;;12.23;2.97;;;;;;;16.36;100.00;98505.06;4910937;29;20049;-79
2021/09/28 11:21:48;;;;;;;9.05;2.72;;;;;;;16.26;100.00;98497.25;4910961;29;20073;-81
2021/09/28 11:24:19;;;;;;;8.98;2.78;;;;;;;16.35;100.00;98497.97;4912907;29;20135;-80
2021/09/28 11:26:47;;;;;;;10.27;3.70;;;;;;;16.44;100.00;98487.81;4896648;29;20047;-81
2021/09/28 11:29:20;;;;;;;8.98;3.65;;;;;;;16.17;100.00;98478.16;4897260;29;20052;-80
2021/09/28 11:31:48;;;;;;;11.13;3.63;;;;;;;16.42;100.00;98479.13;4895498;29;20049;-80
2021/09/28 11:34:30;;;;;;;9.43;3.35;;;;;;;16.17;100.00;98473.50;4910477;29;20513;-79